Time;durP1;ratioP1;P1;durP2;ratioP2;P2;SDS_P1;SDS_P2;PMS_P1;PMS_P2;Temp;Humidity;BMP_temperature;BMP_pressure;BME280_temperature;BME280_humidity;BME280_pressure;Samples;Min_cycle;Max_cycle;Signal;HPM_P1;HPM_P2
2023/06/07 00:00:27;;;;;;;;;;;;;;;24.26;48.57;101205.10;2269023;76;52396;-75
2023/06/07 00:03:29;;;;;;;;;;;;;;;24.24;48.60;101206.34;2331891;76;51517;-76
2023/06/07 00:06:32;;;;;;;;;;;;;;;24.23;48.96;101209.58;2282791;77;51515;-74
2023/06/07 00:09:34;;;;;;;;;;;;;;;24.22;49.07;101211.95;2297104;77;50465;-74
2023/06/07 00:12:36;;;;;;;;;;;;;;;24.22;48.93;101213.83;2302899;76;49590;-74
2023/06/07 00:15:37;;;;;;;;;;;;;;;24.20;48.91;101214.55;2297036;76;51571;-74
2023/06/07 00:18:40;;;;;;;;;;;;;;;24.21;48.75;101222.99;2281034;75;51485;-74
2023/06/07 00:21:42;;;;;;;;;;;;;;;24.19;48.64;101216.42;2282284;76;51446;-74
2023/06/07 00:24:43;;;;;;;;;;;;;;;24.21;48.51;101212.17;2300153;76;51462;-75
2023/06/07 00:27:45;;;;;;;;;;;;;;;24.22;47.80;101215.18;2343791;75;51424;-75
2023/06/07 00:30:47;;;;;;;;;;;;;;;24.21;48.06;101209.47;2318127;76;51514;-75
2023/06/07 00:33:48;;;;;;;;;;;;;;;24.20;48.29;101205.09;2275960;77;50171;-75
2023/06/07 00:36:50;;;;;;;;;;;;;;;24.20;48.07;101205.09;2300254;76;52372;-75
2023/06/07 00:39:51;;;;;;;;;;;;;;;24.20;48.16;101211.84;2336589;76;51487;-74
2023/06/07 00:42:53;;;;;;;;;;;;;;;24.17;48.22;101209.56;2334437;76;50375;-74
2023/06/07 00:45:54;;;;;;;;;;;;;;;24.16;48.25;101208.73;2271263;76;51589;-75
2023/06/07 00:48:56;;;;;;;;;;;;;;;24.17;48.30;101216.32;2264072;77;51334;-75
2023/06/07 00:51:58;;;;;;;;;;;;;;;24.17;47.98;101209.03;2326322;76;51541;-74
2023/06/07 00:55:01;;;;;;;;;;;;;;;24.18;47.92;101204.48;2316148;76;52138;-75
2023/06/07 00:58:02;;;;;;;;;;;;;;;24.18;47.69;101205.84;2313204;76;50323;-75
2023/06/07 01:01:04;;;;;;;;;;;;;;;24.19;47.62;101212.90;2306886;76;49715;-74
2023/06/07 01:04:06;;;;;;;;;;;;;;;24.19;48.19;101205.61;2312615;76;50305;-74
2023/06/07 01:07:11;;;;;;;;;;;;;;;24.18;47.95;101207.19;2330731;76;51467;-74
2023/06/07 01:10:12;;;;;;;;;;;;;;;24.18;47.87;101208.02;2315127;76;50302;-74
2023/06/07 01:13:14;;;;;;;;;;;;;;;24.18;47.73;101199.08;2312952;76;52210;-75
2023/06/07 01:16:16;;;;;;;;;;;;;;;24.18;47.61;101207.19;2335303;76;51413;-75
2023/06/07 01:19:24;;;;;;;;;;;;;;;24.17;47.36;101199.57;2336660;76;52419;-75
2023/06/07 01:22:27;;;;;;;;;;;;;;;24.17;47.54;101196.87;2299515;76;52613;-74
2023/06/07 01:25:28;;;;;;;;;;;;;;;24.18;47.36;101204.48;2299353;76;50298;-74
2023/06/07 01:28:33;;;;;;;;;;;;;;;24.17;47.27;101200.92;2312158;75;51550;-73
2023/06/07 01:31:35;;;;;;;;;;;;;;;24.18;47.31;101201.78;2285955;76;22501;-73
2023/06/07 01:34:36;;;;;;;;;;;;;;;24.17;47.09;101195.52;2297871;76;50713;-75
2023/06/07 01:37:38;;;;;;;;;;;;;;;24.17;47.36;101199.57;2275567;77;52478;-75
2023/06/07 01:40:40;;;;;;;;;;;;;;;24.16;47.71;101193.04;2297266;76;51635;-75
2023/06/07 01:43:42;;;;;;;;;;;;;;;24.15;47.99;101193.56;2297438;76;50747;-75
2023/06/07 01:46:43;;;;;;;;;;;;;;;24.15;47.86;101192.70;2299595;76;52200;-74
2023/06/07 01:49:45;;;;;;;;;;;;;;;24.15;47.77;101196.77;2253312;76;52396;-75
2023/06/07 01:52:46;;;;;;;;;;;;;;;24.16;47.75;101191.69;2278129;77;50549;-74
2023/06/07 01:55:50;;;;;;;;;;;;;;;24.16;47.61;101191.16;2290526;76;51604;-75
2023/06/07 01:58:53;;;;;;;;;;;;;;;24.15;47.58;101191.36;2339227;75;51600;-75
2023/06/07 02:01:55;;;;;;;;;;;;;;;24.16;47.59;101185.75;2271556;77;52355;-75
2023/06/07 02:04:58;;;;;;;;;;;;;;;24.17;47.19;101185.23;2248698;77;50535;-74
2023/06/07 02:08:00;;;;;;;;;;;;;;;24.18;47.32;101184.20;2298390;77;50423;-75
2023/06/07 02:11:01;;;;;;;;;;;;;;;24.15;47.99;101190.86;2274548;78;49949;-76
2023/06/07 02:14:03;;;;;;;;;;;;;;;24.16;47.87;101184.92;2220073;78;52482;-75
2023/06/07 02:17:08;;;;;;;;;;;;;;;24.14;47.78;101183.77;2272171;78;51573;-75
2023/06/07 02:20:11;;;;;;;;;;;;;;;24.12;47.87;101181.29;2273625;78;50669;-75
2023/06/07 02:23:13;;;;;;;;;;;;;;;24.13;47.81;101176.70;2274428;78;51600;-75
2023/06/07 02:26:15;;;;;;;;;;;;;;;24.13;47.90;101177.53;2237758;78;51065;-75
2023/06/07 02:29:16;;;;;;;;;;;;;;;24.13;47.61;101175.36;2262515;78;50286;-74
2023/06/07 02:32:18;;;;;;;;;;;;;;;24.14;47.19;101175.66;2207714;79;51545;-76
2023/06/07 02:35:20;;;;;;;;;;;;;;;24.15;47.02;101170.58;2266439;78;50350;-76
2023/06/07 02:38:23;;;;;;;;;;;;;;;24.16;46.86;101170.88;2241435;78;52583;-76
2023/06/07 02:41:25;;;;;;;;;;;;;;;24.15;47.11;101176.48;2274442;78;50054;-76
2023/06/07 02:44:28;;;;;;;;;;;;;;;24.15;47.20;101179.19;2244024;78;50765;-76
2023/06/07 02:47:30;;;;;;;;;;;;;;;24.13;47.23;101180.23;2235083;78;50344;-76
2023/06/07 02:50:31;;;;;;;;;;;;;;;24.15;46.95;101175.13;2207345;78;51834;-74
2023/06/07 02:53:33;;;;;;;;;;;;;;;24.16;46.95;101182.22;2230271;79;51320;-74
2023/06/07 02:56:35;;;;;;;;;;;;;;;24.16;47.04;101174.11;2244638;78;51462;-74
2023/06/07 02:59:39;;;;;;;;;;;;;;;24.15;47.00;101172.42;2230785;77;50304;-76
2023/06/07 03:02:40;;;;;;;;;;;;;;;24.15;47.02;101175.13;2236999;79;23235;-73
2023/06/07 03:05:41;;;;;;;;;;;;;;;24.16;46.74;101172.76;2236917;79;50651;-74
2023/06/07 03:08:43;;;;;;;;;;;;;;;24.13;46.92;101172.13;2268409;78;50561;-74
2023/06/07 03:11:44;;;;;;;;;;;;;;;24.12;46.98;101167.77;2258654;77;51448;-74
2023/06/07 03:14:46;;;;;;;;;;;;;;;24.12;47.06;101173.18;2243032;78;51716;-74
2023/06/07 03:17:48;;;;;;;;;;;;;;;24.12;47.07;101180.44;2256595;76;50181;-73
2023/06/07 03:20:50;;;;;;;;;;;;;;;24.12;46.83;101173.18;2246948;78;51524;-75
2023/06/07 03:23:53;;;;;;;;;;;;;;;24.10;47.01;101171.72;2246937;78;50234;-74
2023/06/07 03:26:57;;;;;;;;;;;;;;;24.10;47.11;101173.08;2227269;77;52680;-74
2023/06/07 03:29:57;;;;;;;;;;;;;;;24.12;47.03;101174.53;2267279;77;23218;-74
2023/06/07 03:32:59;;;;;;;;;;;;;;;24.09;47.04;101182.20;2245096;78;51388;-74
2023/06/07 03:36:01;;;;;;;;;;;;;;;24.11;46.96;101187.72;2236990;78;51569;-74
2023/06/07 03:39:02;;;;;;;;;;;;;;;24.10;47.05;101186.59;2185805;79;50771;-74
2023/06/07 03:42:05;;;;;;;;;;;;;;;24.10;46.95;101188.77;2223267;78;51503;-74
2023/06/07 03:45:07;;;;;;;;;;;;;;;24.10;46.99;101192.83;2261742;78;51518;-74
2023/06/07 03:48:08;;;;;;;;;;;;;;;24.12;46.93;101191.25;2255425;78;50735;-72
2023/06/07 03:51:10;;;;;;;;;;;;;;;24.09;47.09;101189.79;2207573;79;52335;-73
2023/06/07 03:54:11;;;;;;;;;;;;;;;24.10;47.09;101187.42;2230340;79;50630;-73
2023/06/07 03:57:13;;;;;;;;;;;;;;;24.10;47.06;101190.13;2238548;78;50645;-73
2023/06/07 04:00:17;;;;;;;;;;;;;;;24.11;47.06;101193.13;2237084;79;51421;-74
2023/06/07 04:03:24;;;;;;;;;;;;;;;24.10;47.08;101187.42;2207513;79;51723;-73
2023/06/07 04:06:25;;;;;;;;;;;;;;;24.10;47.11;101190.13;2230747;78;23152;-73
2023/06/07 04:09:26;;;;;;;;;;;;;;;24.10;47.06;101183.89;2239431;78;51489;-74
2023/06/07 04:12:28;;;;;;;;;;;;;;;24.11;46.94;101189.59;2251915;78;51435;-75
2023/06/07 04:15:29;;;;;;;;;;;;;;;24.11;47.00;101183.66;2240443;78;51678;-75
2023/06/07 04:18:31;;;;;;;;;;;;;;;24.12;46.82;101179.94;2232885;78;51425;-74
2023/06/07 04:21:33;;;;;;;;;;;;;;;24.13;46.77;101184.82;2230394;79;51461;-74
2023/06/07 04:24:34;;;;;;;;;;;;;;;24.11;46.80;101185.02;2236913;78;51470;-74
2023/06/07 04:27:38;;;;;;;;;;;;;;;24.16;46.59;101184.92;2209110;78;52345;-74
2023/06/07 04:30:42;;;;;;;;;;;;;;;24.19;46.62;101188.56;2230481;78;50290;-74
2023/06/07 04:33:45;;;;;;;;;;;;;;;24.13;46.83;101187.52;2230654;79;22405;-75
2023/06/07 04:36:49;;;;;;;;;;;;;;;24.18;46.60;101185.55;2230278;78;22909;-75
2023/06/07 04:39:51;;;;;;;;;;;;;;;24.16;46.79;101182.22;2255658;78;22010;-75
2023/06/07 04:43:04;;;;;;;;;;;;;;;24.18;46.59;101184.20;2250424;77;50358;-76
2023/06/07 04:46:01;;;;;;;;;;;;;;;24.19;46.44;101185.86;2237568;78;22961;-76
2023/06/07 04:49:02;;;;;;;;;;;;;;;24.20;46.12;101184.80;2235719;78;50686;-76
2023/06/07 04:52:05;;;;;;;;;;;;;;;24.21;45.97;101187.31;2218274;78;51164;-76
2023/06/07 04:55:07;;;;;;;;;;;;;;;24.22;45.63;101188.14;2236600;78;50777;-76
2023/06/07 04:58:09;;;;;;;;;;;;;;;24.23;45.40;101192.53;2242875;78;50201;-76
2023/06/07 05:01:11;;;;;;;;;;;;;;;24.26;45.16;101190.23;2207669;79;51549;-77
2023/06/07 05:04:13;;;;;;;;;;;;;;;24.32;45.08;101196.14;2185606;78;51174;-76
2023/06/07 05:07:14;;;;;;;;;;;;;;;24.30;45.05;101197.39;2224114;78;51319;-75
2023/06/07 05:10:17;;;;;;;;;;;;;;;24.30;44.71;101195.55;2229465;78;51455;-76
2023/06/07 05:13:18;;;;;;;;;;;;;;;24.40;44.40;101200.52;2218883;79;51567;-76
2023/06/07 05:16:20;;;;;;;;;;;;;;;24.50;43.82;101194.72;2237801;78;51526;-76
2023/06/07 05:19:22;;;;;;;;;;;;;;;24.44;42.61;101199.59;2207399;80;51439;-76
2023/06/07 05:22:23;;;;;;;;;;;;;;;24.37;42.30;101201.47;2254798;77;51515;-75
2023/06/07 05:25:25;;;;;;;;;;;;;;;24.35;42.05;101200.31;2271042;78;50047;-76
2023/06/07 05:28:26;;;;;;;;;;;;;;;24.31;41.06;101201.25;2272937;78;51500;-76
2023/06/07 05:31:29;;;;;;;;;;;;;;;24.30;40.81;101198.74;2234455;77;51175;-76
2023/06/07 05:34:30;;;;;;;;;;;;;;;24.28;40.59;101199.50;2243952;78;51605;-75
2023/06/07 05:37:32;;;;;;;;;;;;;;;24.25;40.63;101203.45;2248706;78;51499;-75
2023/06/07 05:40:33;;;;;;;;;;;;;;;24.26;40.68;101202.92;2243626;78;51906;-76
2023/06/07 05:43:36;;;;;;;;;;;;;;;24.23;40.77;101201.99;2239656;78;51168;-75
2023/06/07 05:46:37;;;;;;;;;;;;;;;24.22;40.85;101209.77;2222733;78;51609;-77
2023/06/07 05:49:39;;;;;;;;;;;;;;;24.22;40.87;101203.84;2243548;78;51600;-76
2023/06/07 05:52:41;;;;;;;;;;;;;;;24.22;40.98;101211.12;2272967;78;51475;-74
2023/06/07 05:55:45;;;;;;;;;;;;;;;24.23;41.03;101209.58;2242994;78;52492;-74
2023/06/07 05:58:47;;;;;;;;;;;;;;;24.23;41.15;101207.40;2238209;79;22413;-75
2023/06/07 06:01:49;;;;;;;;;;;;;;;24.24;41.63;101210.41;2198736;79;50678;-75
2023/06/07 06:04:53;;;;;;;;;;;;;;;24.25;41.99;101205.30;2217374;77;50289;-74
2023/06/07 06:07:55;;;;;;;;;;;;;;;24.23;42.01;101205.52;2236866;77;51268;-74
2023/06/07 06:10:57;;;;;;;;;;;;;;;24.25;42.17;101209.35;2253003;78;51608;-75
2023/06/07 06:13:58;;;;;;;;;;;;;;;24.25;42.24;101203.45;2219405;78;51602;-75
2023/06/07 06:17:00;;;;;;;;;;;;;;;24.27;42.30;101208.63;2241446;78;51475;-75
2023/06/07 06:20:02;;;;;;;;;;;;;;;24.27;42.39;101208.63;2246587;77;51402;-74
2023/06/07 06:23:04;;;;;;;;;;;;;;;24.28;42.37;101210.31;2226905;77;51397;-75
2023/06/07 06:26:05;;;;;;;;;;;;;;;24.30;42.43;101209.56;2227914;79;50714;-75
2023/06/07 06:29:07;;;;;;;;;;;;;;;24.31;42.30;101215.30;2200419;79;50683;-74
2023/06/07 06:32:09;;;;;;;;;;;;;;;24.33;42.17;101224.88;2214643;79;52338;-74
2023/06/07 06:35:11;;;;;;;;;;;;;;;24.36;42.10;101224.98;2209677;78;50284;-73
2023/06/07 06:38:13;;;;;;;;;;;;;;;24.38;42.00;101223.40;2276039;77;50742;-74
2023/06/07 06:41:14;;;;;;;;;;;;;;;24.38;41.99;101225.61;2256565;77;50847;-73
2023/06/07 06:44:16;;;;;;;;;;;;;;;24.39;41.90;101226.44;2243298;77;51776;-74
2023/06/07 06:47:17;;;;;;;;;;;;;;;24.39;41.81;101223.20;2253352;77;51401;-74
2023/06/07 06:50:19;;;;;;;;;;;;;;;24.40;41.83;101218.62;2261606;77;50766;-73
2023/06/07 06:53:21;;;;;;;;;;;;;;;24.42;41.81;101230.90;2262831;77;50288;-73
2023/06/07 06:56:23;;;;;;;;;;;;;;;24.40;41.83;101231.62;2224568;78;51659;-73
2023/06/07 06:59:24;;;;;;;;;;;;;;;24.41;41.83;101227.89;2249351;78;50316;-74
2023/06/07 07:02:26;;;;;;;;;;;;;;;24.43;41.84;101235.29;2236639;78;50373;-73
2023/06/07 07:05:28;;;;;;;;;;;;;;;24.45;41.70;101229.16;2228884;77;50374;-74
2023/06/07 07:08:29;;;;;;;;;;;;;;;24.45;41.78;101229.68;2214989;77;52851;-74
2023/06/07 07:11:31;;;;;;;;;;;;;;;24.45;41.72;101222.39;2258368;77;50325;-72
2023/06/07 07:14:32;;;;;;;;;;;;;;;24.46;41.63;101224.08;2256780;77;50027;-72
2023/06/07 07:17:34;;;;;;;;;;;;;;;24.49;41.50;101226.36;2268427;77;50650;-74
2023/06/07 07:20:36;;;;;;;;;;;;;;;24.48;41.73;101226.06;2211836;78;50788;-74
2023/06/07 07:23:37;;;;;;;;;;;;;;;24.53;41.75;101226.77;2261193;78;50472;-75
2023/06/07 07:26:39;;;;;;;;;;;;;;;24.58;42.08;101223.44;2248508;78;50626;-74
2023/06/07 07:29:41;;;;;;;;;;;;;;;24.63;42.02;101226.34;2241201;77;51434;-72
2023/06/07 07:32:42;;;;;;;;;;;;;;;24.65;41.87;101228.33;2221729;78;50828;-74
2023/06/07 07:35:44;;;;;;;;;;;;;;;24.66;41.74;101228.13;2241032;78;50632;-74
2023/06/07 07:38:45;;;;;;;;;;;;;;;24.69;41.81;101230.94;2250026;78;52468;-74
2023/06/07 07:41:47;;;;;;;;;;;;;;;24.70;41.75;101231.23;2245227;76;50628;-75
2023/06/07 07:44:49;;;;;;;;;;;;;;;24.70;41.65;101231.23;2180744;80;51264;-74
2023/06/07 07:47:50;;;;;;;;;;;;;;;24.69;41.61;101237.70;2241859;78;50275;-74
2023/06/07 07:50:52;;;;;;;;;;;;;;;24.69;41.43;101239.06;2242407;78;50423;-74
2023/06/07 07:53:53;;;;;;;;;;;;;;;24.69;41.66;101233.65;2192043;79;50103;-74
2023/06/07 07:56:55;;;;;;;;;;;;;;;24.70;41.60;101233.95;2212270;78;51702;-76
2023/06/07 07:59:57;;;;;;;;;;;;;;;24.73;40.81;101226.75;2257627;78;50676;-76
2023/06/07 08:02:58;;;;;;;;;;;;;;;24.69;40.05;101228.23;2206942;80;50356;-75
2023/06/07 08:06:01;;;;;;;;;;;;;;;24.67;40.19;101231.66;2202768;80;50762;-76
2023/06/07 08:09:03;;;;;;;;;;;;;;;24.65;40.50;101231.03;2179595;80;51257;-76
2023/06/07 08:12:05;;;;;;;;;;;;;;;24.66;40.75;101227.27;2225588;78;52351;-78
2023/06/07 08:15:07;;;;;;;;;;;;;;;24.66;40.85;101234.04;2227787;78;50329;-76
2023/06/07 08:18:09;;;;;;;;;;;;;;;24.66;40.96;101225.43;2252576;78;50260;-77
2023/06/07 08:21:13;;;;;;;;;;;;;;;24.68;41.06;101231.97;2207764;78;51591;-77
2023/06/07 08:24:15;;;;;;;;;;;;;;;24.73;41.06;101228.11;2208845;78;51532;-77
2023/06/07 08:27:16;;;;;;;;;;;;;;;24.75;41.17;101220.62;2234661;78;51433;-76
2023/06/07 08:30:18;;;;;;;;;;;;;;;24.77;41.15;101223.42;2206390;78;52090;-76
2023/06/07 08:33:19;;;;;;;;;;;;;;;24.81;41.18;101214.34;2222493;76;51091;-77
2023/06/07 08:36:21;;;;;;;;;;;;;;;24.80;41.16;101222.17;2213688;78;50298;-78
2023/06/07 08:39:23;;;;;;;;;;;;;;;24.82;40.67;101225.50;2259056;77;51522;-79
2023/06/07 08:42:25;;;;;;;;;;;;;;;24.85;40.37;101224.25;2238151;78;49737;-78
2023/06/07 08:45:27;;;;;;;;;;;;;;;24.86;40.30;101222.67;2215230;78;50090;-79
2023/06/07 08:48:29;;;;;;;;;;;;;;;24.89;40.17;101216.86;2260206;78;50749;-76
2023/06/07 08:51:30;;;;;;;;;;;;;;;24.90;40.05;101210.91;2260132;77;51497;-76
2023/06/07 08:54:32;;;;;;;;;;;;;;;24.91;39.92;101219.34;2259706;78;51392;-79
2023/06/07 08:57:34;;;;;;;;;;;;;;;24.91;39.97;101220.69;2238916;78;52555;-77
2023/06/07 09:00:36;;;;;;;;;;;;;;;24.90;40.00;101223.92;2252349;78;51638;-78
2023/06/07 09:03:37;;;;;;;;;;;;;;;24.91;39.92;101207.98;2265509;78;50258;-76
2023/06/07 09:06:39;;;;;;;;;;;;;;;24.88;39.94;101217.88;2239097;79;49997;-76
2023/06/07 09:09:41;;;;;;;;;;;;;;;24.86;40.04;101217.78;2220027;78;52479;-76
2023/06/07 09:12:45;;;;;;;;;;;;;;;24.86;39.98;101215.08;2235782;79;51569;-75
2023/06/07 09:15:52;;;;;;;;;;;;;;;24.85;40.01;101207.48;2259687;77;51504;-77
2023/06/07 09:18:56;;;;;;;;;;;;;;;24.82;40.11;101211.97;2256671;78;22017;-76
2023/06/07 09:21:57;;;;;;;;;;;;;;;24.78;40.20;101213.42;2235385;78;52577;-77
2023/06/07 09:25:01;;;;;;;;;;;;;;;24.72;40.26;101215.10;2256933;77;51354;-77
2023/06/07 09:28:03;;;;;;;;;;;;;;;24.72;40.22;101208.86;2265332;77;51347;-77
2023/06/07 09:31:04;;;;;;;;;;;;;;;24.71;40.17;101207.18;2273907;77;51229;-76
2023/06/07 09:34:20;;;;;;;;;;;;;;;24.69;40.21;101218.77;2231673;77;51127;-77
2023/06/07 09:37:21;;;;;;;;;;;;;;;24.70;40.20;101205.53;2229963;78;50861;-77
2023/06/07 09:40:23;;;;;;;;;;;;;;;24.70;40.17;101201.47;2221434;78;50510;-75
2023/06/07 09:43:25;;;;;;;;;;;;;;;24.68;40.36;101208.44;2243434;78;51272;-76
2023/06/07 09:46:28;;;;;;;;;;;;;;;24.70;40.26;101204.18;2267635;78;51673;-77
2023/06/07 09:49:35;;;;;;;;;;;;;;;24.67;40.33;101195.95;2254496;78;51488;-76
2023/06/07 09:52:34;;;;;;;;;;;;;;;24.67;40.28;101192.42;2265952;78;22406;-77
2023/06/07 09:55:36;;;;;;;;;;;;;;;24.68;40.28;101191.38;2239063;78;49782;-78
2023/06/07 09:58:37;;;;;;;;;;;;;;;24.66;40.29;101184.84;2230761;78;49512;-78
2023/06/07 10:01:45;;;;;;;;;;;;;;;24.67;40.38;101182.95;2218388;78;50252;-77
2023/06/07 10:04:46;;;;;;;;;;;;;;;24.68;40.29;101193.55;2237642;78;25965;-78
2023/06/07 10:07:49;;;;;;;;;;;;;;;24.69;41.23;101199.82;2229669;78;50711;-77
2023/06/07 10:10:52;;;;;;;;;;;;;;;24.72;41.78;101190.75;2236581;78;51752;-76
2023/06/07 10:13:54;;;;;;;;;;;;;;;24.75;41.89;101189.49;2250461;78;50697;-74
2023/06/07 10:16:56;;;;;;;;;;;;;;;24.76;41.78;101177.11;2240507;78;50257;-77
2023/06/07 10:20:00;;;;;;;;;;;;;;;24.75;41.75;101174.61;2244811;78;51533;-77
2023/06/07 10:23:04;;;;;;;;;;;;;;;24.75;41.63;101180.02;2259302;78;22348;-77
2023/06/07 10:26:07;;;;;;;;;;;;;;;24.80;41.35;101180.22;2238293;78;51508;-78
2023/06/07 10:29:09;;;;;;;;;;;;;;;24.73;41.35;101183.45;2258978;78;50809;-77
2023/06/07 10:32:12;;;;;;;;;;;;;;;24.73;41.32;101175.33;2248465;78;50609;-76
2023/06/07 10:35:13;;;;;;;;;;;;;;;24.74;41.88;101172.43;2263079;78;52605;-77
2023/06/07 10:38:15;;;;;;;;;;;;;;;24.76;42.20;101169.49;2218765;78;50746;-78
2023/06/07 10:41:17;;;;;;;;;;;;;;;24.80;41.83;101174.80;2226210;79;50771;-77
2023/06/07 10:44:18;;;;;;;;;;;;;;;24.75;41.25;101169.20;2223313;79;50630;-79
2023/06/07 10:47:25;;;;;;;;;;;;;;;24.73;41.39;101164.51;2202523;80;51638;-77
2023/06/07 10:50:34;;;;;;;;;;;;;;;24.72;41.63;101162.86;2222656;80;50682;-77
2023/06/07 10:53:51;;;;;;;;;;;;;;;24.74;41.60;101163.48;2221327;80;22447;-78
2023/06/07 10:56:53;;;;;;;;;;;;;;;24.69;41.66;101161.41;2222604;79;50449;-77
2023/06/07 10:59:55;;;;;;;;;;;;;;;24.70;41.64;101166.29;2212884;79;50770;-78
2023/06/07 11:02:58;;;;;;;;;;;;;;;24.70;41.63;101158.17;2198655;79;50362;-77
2023/06/07 11:06:09;;;;;;;;;;;;;;;24.70;41.67;101159.52;2222084;78;50281;-81
2023/06/07 11:09:19;;;;;;;;;;;;;;;24.70;41.75;101154.11;2258586;78;22954;-77
2023/06/07 11:12:29;;;;;;;;;;;;;;;24.71;41.68;101150.35;2263116;78;51601;-78
2023/06/07 11:15:35;;;;;;;;;;;;;;;24.69;41.76;101139.76;2251020;78;51470;-78
2023/06/07 11:18:51;;;;;;;;;;;;;;;24.72;41.77;101134.44;2257594;78;21774;-77
2023/06/07 11:22:00;;;;;;;;;;;;;;;24.74;41.74;101143.19;2252022;78;51506;-77
2023/06/07 11:25:02;;;;;;;;;;;;;;;24.71;42.02;101147.15;2259532;78;21829;-77
2023/06/07 11:28:04;;;;;;;;;;;;;;;24.69;41.91;101146.52;2258459;77;51518;-77
2023/06/07 11:31:10;;;;;;;;;;;;;;;24.70;42.13;101145.47;2213080;79;51628;-77
2023/06/07 11:34:15;;;;;;;;;;;;;;;24.68;42.07;101155.66;2240921;78;50443;-77
2023/06/07 11:37:16;;;;;;;;;;;;;;;24.69;42.08;101151.11;2231885;79;52608;-77
2023/06/07 11:40:18;;;;;;;;;;;;;;;24.72;42.06;101146.63;2231786;78;50352;-76
2023/06/07 11:43:23;;;;;;;;;;;;;;;24.71;42.17;101150.35;2250139;78;50344;-73
2023/06/07 11:46:26;;;;;;;;;;;;;;;24.71;42.87;101147.64;2242347;78;50293;-74
2023/06/07 11:49:28;;;;;;;;;;;;;;;24.71;43.03;101153.06;2217179;80;52451;-75
2023/06/07 11:52:30;;;;;;;;;;;;;;;24.72;43.36;101146.63;2240407;78;51520;-72
2023/06/07 11:55:32;;;;;;;;;;;;;;;24.75;43.88;101133.48;2251120;78;50371;-76
2023/06/07 11:58:33;;;;;;;;;;;;;;;24.80;44.48;101139.62;2258473;78;51544;-76
2023/06/07 12:01:39;;;;;;;;;;;;;;;24.81;44.62;101138.56;2248267;77;51566;-76
2023/06/07 12:04:38;;;;;;;;;;;;;;;24.83;44.33;101131.59;2245927;77;22421;-77
2023/06/07 12:07:41;;;;;;;;;;;;;;;24.82;44.04;101126.71;2266621;78;50768;-77
2023/06/07 12:10:43;;;;;;;;;;;;;;;24.83;44.00;101118.06;2256647;78;50134;-78
2023/06/07 12:13:45;;;;;;;;;;;;;;;24.82;44.07;101118.59;2186472;80;50962;-75
2023/06/07 12:16:48;;;;;;;;;;;;;;;24.84;44.86;101114.30;2229224;78;50451;-74
2023/06/07 12:19:49;;;;;;;;;;;;;;;24.84;45.02;101116.51;2286454;77;50653;-75
2023/06/07 12:22:51;;;;;;;;;;;;;;;24.87;45.22;101116.08;2264588;78;51393;-77
2023/06/07 12:25:54;;;;;;;;;;;;;;;24.89;45.33;101105.02;2266741;78;51522;-75
2023/06/07 12:28:57;;;;;;;;;;;;;;;24.91;45.30;101105.11;2264743;78;50773;-75
2023/06/07 12:32:01;;;;;;;;;;;;;;;24.91;45.50;101109.17;2254771;78;51504;-76
2023/06/07 12:35:05;;;;;;;;;;;;;;;24.91;44.99;101102.93;2243313;78;50256;-76
2023/06/07 12:38:06;;;;;;;;;;;;;;;24.92;44.91;101100.52;2229663;79;22464;-79
2023/06/07 12:41:07;;;;;;;;;;;;;;;24.91;44.71;101100.23;2232397;79;51463;-77
2023/06/07 12:44:09;;;;;;;;;;;;;;;24.93;44.64;101089.48;2245305;78;50228;-77
2023/06/07 12:47:11;;;;;;;;;;;;;;;24.91;44.59;101088.87;2263612;78;51500;-77
2023/06/07 12:50:13;;;;;;;;;;;;;;;24.92;44.60;101088.34;2208701;80;52304;-77
2023/06/07 12:53:14;;;;;;;;;;;;;;;24.90;44.52;101090.45;2230325;78;51413;-77
2023/06/07 12:56:16;;;;;;;;;;;;;;;24.89;44.58;101093.69;2231768;78;51632;-76
2023/06/07 12:59:17;;;;;;;;;;;;;;;24.86;44.56;101085.97;2232203;79;50308;-76
2023/06/07 13:02:19;;;;;;;;;;;;;;;24.89;44.84;101088.28;2228813;78;52416;-76
2023/06/07 13:05:21;;;;;;;;;;;;;;;24.94;44.62;101090.31;2232068;78;51541;-76
2023/06/07 13:08:23;;;;;;;;;;;;;;;24.92;44.63;101083.78;2229804;80;51511;-75
2023/06/07 13:11:24;;;;;;;;;;;;;;;24.93;44.35;101087.31;2231951;79;50679;-77
2023/06/07 13:14:26;;;;;;;;;;;;;;;24.93;44.16;101090.84;2197749;79;52531;-77
2023/06/07 13:17:27;;;;;;;;;;;;;;;24.95;44.12;101078.46;2241085;78;51440;-77
2023/06/07 13:20:29;;;;;;;;;;;;;;;24.93;43.82;101080.02;2229547;80;51419;-77
2023/06/07 13:23:30;;;;;;;;;;;;;;;24.91;43.71;101083.45;2232033;78;50246;-77
2023/06/07 13:26:33;;;;;;;;;;;;;;;24.91;43.71;101085.34;2210688;78;51230;-76
2023/06/07 13:29:34;;;;;;;;;;;;;;;24.92;43.67;101093.75;2231688;79;51540;-75
2023/06/07 13:32:36;;;;;;;;;;;;;;;24.92;43.57;101081.07;2257307;78;50633;-75
2023/06/07 13:35:37;;;;;;;;;;;;;;;24.90;43.62;101083.16;2230487;78;51550;-76
2023/06/07 13:38:39;;;;;;;;;;;;;;;24.91;43.60;101075.33;2208714;79;51443;-76
2023/06/07 13:41:43;;;;;;;;;;;;;;;24.91;43.63;101066.39;2191303;80;51491;-76
2023/06/07 13:44:44;;;;;;;;;;;;;;;24.94;43.56;101064.06;2219781;78;50176;-76
2023/06/07 13:47:46;;;;;;;;;;;;;;;24.91;43.63;101059.09;2264367;78;50283;-76
2023/06/07 13:50:52;;;;;;;;;;;;;;;24.93;43.67;101056.18;2233311;78;51620;-76
2023/06/07 13:53:51;;;;;;;;;;;;;;;24.95;43.62;101054.92;2257612;78;22263;-76
2023/06/07 13:56:52;;;;;;;;;;;;;;;24.92;43.65;101045.03;2277049;77;50626;-76
2023/06/07 13:59:55;;;;;;;;;;;;;;;24.96;43.57;101048.97;2244124;78;51554;-76
2023/06/07 14:02:57;;;;;;;;;;;;;;;24.94;43.61;101047.00;2235491;79;50289;-76
2023/06/07 14:05:58;;;;;;;;;;;;;;;24.93;43.69;101048.88;2238284;79;50733;-76
2023/06/07 14:09:00;;;;;;;;;;;;;;;24.95;43.65;101054.92;2237308;78;51519;-76
2023/06/07 14:12:02;;;;;;;;;;;;;;;24.93;43.61;101046.17;2207003;79;50630;-75
2023/06/07 14:15:05;;;;;;;;;;;;;;;24.92;43.59;101043.17;2207380;80;51455;-76
2023/06/07 14:18:08;;;;;;;;;;;;;;;24.90;43.67;101043.91;2228337;78;51608;-76
2023/06/07 14:21:09;;;;;;;;;;;;;;;24.90;43.72;101051.20;2264494;78;50326;-77
2023/06/07 14:24:11;;;;;;;;;;;;;;;24.91;43.69;101051.50;2243031;78;50475;-77
2023/06/07 14:27:12;;;;;;;;;;;;;;;24.91;43.70;101044.20;2208459;78;52219;-77
2023/06/07 14:30:15;;;;;;;;;;;;;;;24.93;43.57;101035.34;2231713;78;51566;-77
2023/06/07 14:33:16;;;;;;;;;;;;;;;24.96;43.54;101040.85;2230569;78;50290;-77
2023/06/07 14:36:18;;;;;;;;;;;;;;;24.92;43.60;101036.41;2229363;80;50605;-77
2023/06/07 14:39:20;;;;;;;;;;;;;;;24.93;43.68;101031.81;2206815;79;51257;-77
2023/06/07 14:42:24;;;;;;;;;;;;;;;24.96;43.61;101034.09;2251849;78;50306;-77
2023/06/07 14:45:26;;;;;;;;;;;;;;;24.93;43.68;101032.64;2229618;80;22450;-77
2023/06/07 14:48:27;;;;;;;;;;;;;;;24.91;43.78;101038.78;2229340;80;50467;-77
2023/06/07 14:51:29;;;;;;;;;;;;;;;24.92;43.72;101028.28;2223248;78;51623;-76
2023/06/07 14:54:31;;;;;;;;;;;;;;;24.91;43.72;101034.73;2206966;80;51398;-77
2023/06/07 14:57:32;;;;;;;;;;;;;;;24.92;43.66;101032.84;2237107;78;50202;-76
2023/06/07 15:00:35;;;;;;;;;;;;;;;24.91;43.62;101036.08;2237113;78;50103;-77
2023/06/07 15:03:37;;;;;;;;;;;;;;;24.94;43.55;101033.47;2223459;78;52089;-77
2023/06/07 15:06:39;;;;;;;;;;;;;;;24.91;43.60;101029.31;2238078;79;50690;-76
2023/06/07 15:09:41;;;;;;;;;;;;;;;24.92;43.56;101036.41;2237171;78;50428;-77
2023/06/07 15:12:43;;;;;;;;;;;;;;;24.91;43.49;101026.61;2244595;78;50479;-77
2023/06/07 15:15:45;;;;;;;;;;;;;;;24.90;43.63;101027.66;2203541;80;52443;-77
2023/06/07 15:18:46;;;;;;;;;;;;;;;24.90;43.60;101027.66;2227910;78;50265;-77
2023/06/07 15:21:49;;;;;;;;;;;;;;;24.91;43.59;101021.72;2254585;78;50375;-77
2023/06/07 15:28:29;;;;;;;;;;;;;;;24.93;43.59;101024.52;2220658;78;22545;-76
2023/06/07 15:31:30;;;;;;;;;;;;;;;24.96;43.46;101015.14;2233436;78;51530;-76
2023/06/07 15:34:32;;;;;;;;;;;;;;;24.96;43.53;101012.42;2240439;79;52250;-76
2023/06/07 15:37:34;;;;;;;;;;;;;;;24.96;43.51;101015.95;2254093;77;51518;-76